Moffett Field, CA (94035)

2:21 AM PDT on August 29, 2015 (GMT -0700)
Mountain Shadows | | Change Station
CLOSE
Current Station
Personal Weather Station
Location: Mountain View, CA
Elevation: 70 ft
Nearby Weather Stations

Elev 70 ft 37.40 °N, 122.08 °W | Updated 1 minute ago

Overcast
Overcast
67.8 °F
Feels Like 67.8 °F
N
0.0
Wind Variable Wind from ENE
Gusts 1.6 mph

Today
High -- | Low -- °F
--% Chance of Precip.
Yesterday
High -- | Low -- °F
Precip. -- in
6:36 AM 7:41 PM
Full, 100% visible
Pressure 29.94 in
Visibility 10.0 miles
Clouds Overcast 900 ft
Dew Point 62 °F
Humidity 81%
Rainfall 0.00 in
Snow Depth Not available.
UV 0 out of 12
Pollen 6.70 out of 12
Air Quality Not available.
Flu Activity Not available.
METAR KNUQ 290856Z 05003KT 10SM OVC009 20/18 A2993 RMK AO2 SLP138 T02000178 51005
Pressure 29.94 in
Visibility 10.0 miles
Clouds Overcast 900 ft
Dew Point 62 °F
Humidity 81%
Rainfall 0.00 in
Snow Depth Not available.
UV 0 out of 12
Pollen 6.70 out of 12
Air Quality Not available.
Flu Activity Not available.
METAR KNUQ 290856Z 05003KT 10SM OVC009 20/18 A2993 RMK AO2 SLP138 T02000178 51005

10-Day Weather Forecast

×

Almanac

Astronomy

Aug. 29, 2015 Rise Set
Actual Time
Civil Twilight
Nautical Twilight
Astronomical Twilight
Moon
Length of Visible Light
Length of Day
Tomorrow will be .
, % of the Moon is Illuminated

Today's Extremes

State Highs State Lows

Community

WunderPhotos

Upload Photos

1,850,634 photos uploaded!

WunderBlogs® & News

Nearby

Air Quality

  Air Quality AQ Index Pollutant
Not available.

Snow Depth

Station Depth Elevation

Earthquake Activity

City Distance Mag. Time & Date
Minimum magnitude displayed is 2.5.

Coastal Water Temperatures

Place Temperature

Stations

Nearby Weather Stations

Station Location Temp. Windchill Dew Point Humidity Wind Precip. Elev Updated Type